Saturday, November 18, 2017, 4:38 PM EST
Back to Local

KSFZ, Pawtucket, North Central State Airport

Location: Smithfield, RI, United States Lat: 41.917
Local Time: 4:38 PM EST (21:38 GMT) Lon: -71.5
Time Zone: US/Eastern Elev: 439 ft

Show me the last for .
Show Decoded

2017-11-18 15:56 METAR KSFZ 182056Z AUTO 00000KT 10SM OVC095 07/01 A2970 RMK AO2 SLP008 T00720011
                 56041 =
2017-11-18 14:56 METAR KSFZ 181956Z AUTO VRB05KT 10SM CLR 07/00 A2974 RMK AO2 SLP020 T00720000 =
2017-11-18 13:56 METAR KSFZ 181856Z AUTO 18003KT 10SM CLR 07/M01 A2978 RMK AO2 SLP035 T00721006 =
2017-11-18 12:56 METAR KSFZ 181756Z AUTO 20005KT 10SM CLR 07/M02 A2983 RMK AO2 SLP049 T00671017
                 10067 21067 58033 =
2017-11-18 11:56 METAR KSFZ 181656Z AUTO 20005KT 10SM CLR 06/M04 A2985 RMK AO2 SLP058 T00561044 =
2017-11-18 10:56 METAR KSFZ 181556Z AUTO VRB04KT 10SM CLR 05/M07 A2990 RMK AO2 SLP075 T00501072 =
2017-11-18 09:56 METAR KSFZ 181456Z AUTO VRB03KT 10SM CLR 03/M07 A2992 RMK AO2 SLP083 T00281072
                 58016 =
2017-11-18 08:56 METAR KSFZ 181356Z AUTO 22003KT 10SM CLR 02/M07 A2994 RMK AO2 SLP088 T00171072
                 FZRANO =
2017-11-18 07:56 METAR KSFZ 181256Z AUTO 00000KT 10SM CLR M01/M04 A2996 RMK AO2 SLP094 T10061039
                 FZRANO =
2017-11-18 06:56 METAR KSFZ 181156Z AUTO 00000KT 10SM CLR M07/M08 A2997 RMK AO2 SLP100 T10671083
                 11022 21067 51002 FZRANO =
2017-11-18 05:56 METAR KSFZ 181056Z AUTO 00000KT 10SM CLR M06/M08 A2997 RMK AO2 SLP098 T10611078
                 FZRANO =
2017-11-18 04:56 METAR KSFZ 180956Z AUTO 26003KT 10SM CLR M06/M08 A2998 RMK AO2 SLP102 T10611078
                 FZRANO =
2017-11-18 03:56 METAR KSFZ 180856Z AUTO 22003KT 10SM CLR M06/M07 A2997 RMK AO2 SLP097 T10561067
                 56013 FZRANO TSNO =
2017-11-18 02:56 METAR KSFZ 180756Z AUTO 23003KT 10SM CLR M04/M07 A2998 RMK AO2 SLP100 T10391067
                 FZRANO =
2017-11-18 01:56 METAR KSFZ 180656Z AUTO 22003KT 10SM CLR M04/M07 A2999 RMK AO2 SLP106 T10391072
                 FZRANO =
2017-11-18 00:56 METAR KSFZ 180556Z AUTO 24003KT 10SM BKN120 M03/M07 A3001 RMK AO2 SLP110
                 T10281072 10011 21028 53008 FZRANO =
2017-11-17 23:56 METAR KSFZ 180456Z AUTO 28004KT 10SM CLR M02/M07 A2999 RMK AO2 SLP105 T10171072
                 400721017 FZRANO =
2017-11-17 22:56 METAR KSFZ 180356Z AUTO 33006KT 10SM CLR M02/M07 A2998 RMK AO2 SLP101 T10171072
                 FZRANO =
2017-11-17 21:56 METAR KSFZ 180256Z AUTO 30005KT 10SM CLR M01/M07 A2998 RMK AO2 SLP102 T10111072
                 58002 FZRANO =
2017-11-17 20:56 METAR KSFZ 180156Z AUTO 29005KT 10SM CLR M01/M07 A2999 RMK AO2 SLP106 T10061067
                 FZRANO =
2017-11-17 19:56 METAR KSFZ 180056Z AUTO 29007KT 10SM CLR 01/M07 A3000 RMK AO2 SLP108 T00061072
                 FZRANO =
2017-11-17 18:56 METAR KSFZ 172356Z AUTO 28009KT 10SM CLR 01/M07 A2999 RMK AO2 SLP104 T00111072
                 10072 20011 51018 FZRANO =
2017-11-17 17:56 METAR KSFZ 172256Z AUTO 28008KT 10SM CLR 02/M07 A2998 RMK AO2 SLP101 T00221067
                 FZRANO =
2017-11-17 16:56 METAR KSFZ 172156Z AUTO 28007KT 10SM CLR 03/M07 A2996 RMK AO2 SLP096 T00331072 =

Support USWX by starting your Amazon purchase here.